RJBB/KIX METAR and TAF weather

Enter ICAO airport designator
Station Type Date Time Source
RJBB METAR 2020/07/10 21:38 UTC NOAA

RJBB 102138Z 19033G44KT 2500 R24L/1100VP2000D R24R/P2000N SHRA BR FEW010 FEW025CB SCT030 BKN045 25/24 Q1004 RMK 1CU010 1CB025 3CU030 5CU045 A2966 CB 20KM SW MOV NE


Station Type Date Time Source
RJBB Decoded METAR 2020/07/10 21:38 UTC NOAA

Kansai International Airport, Japan (RJBB) 34-25N 135-15E 8M
Jul 10, 2020 - 05:38 PM EDT / 2020.07.10 2138 UTC
Wind: from the S (190 degrees) at 38 MPH (33 KT) gusting to 51 MPH (44 KT):0
Visibility: 1 mile(s):0
Sky conditions: mostly cloudy
Weather: rain showers; mist; Cumulonimbus clouds observed
Temperature: 77 F (25 C)
Dew Point: 75 F (24 C)
Relative Humidity: 94%
Pressure (altimeter): 29.65 in. Hg (1004 hPa)
ob: RJBB 102138Z 19033G44KT 2500 R24L/1100VP2000D R24R/P2000N SHRA BR FEW010 FEW025CB SCT030 BKN045 25/24 Q1004 RMK 1CU010 1CB025 3CU030 5CU045 A2966 CB 20KM SW MOV NE
cycle: 21

Station Type Date Time Source
RJBB TAF 2020/07/10 18:28 UTC NOAA

TAF RJBB 101705Z 1018/1200 20024KT 8000 -SHRA FEW008 SCT025 BKN040
TEMPO 1018/1020 20028G40KT
TEMPO 1020/1101 20030G42KT 3000 SHRA BR
TEMPO 1112/1115 2500 TSRA BR FEW003 BKN008 BKN015 FEW020CB
BECMG 1112/1115 27012KT
TEMPO 1115/1118 4000 SHRA BR FEW003 BKN008 BKN015

Example: see airport list